Aérodrome :
LOGIN :

S'inscrire | Disclaimer

   EN    FR    IT 

 










Légende :    VFR   VFR Marginal   IFR   IFR Intensif   IFR Très Intensif
Visi : 
Plafond : 
>= 8 km
>= 3000ft
5 à 8 km
1000 à 3000 ft
1500m à 5 km
500 à 1000 ft
800 à 1500m
200 à 500 ft
< 800m
< 200 ft
Symboles :   Orages  Brouillard  Fortes neiges  Fortes précipitations  Vent > 20 kt
SIGMETs :   Divers  Orages  Givrage  Turbulence  Onde Orograph.  Cendres Volcan.







- Altitude de l'aérodrome : 863 ft
- Code IATA : ZAZ


LEZG - Zaragoza Aragon

DERNIER METAR :
  • 202030Z 26010G20KT 9999 SCT050 12/06 Q1022

METARs EXPIRÉS :
  • 202000Z 23007KT 9999 FEW050 11/06 Q1022
  • 201930Z 26008KT 9999 FEW050 11/06 Q1022
  • 201900Z 28010KT 9999 SCT058 11/05 Q1022
  • 201830Z 29008KT 9999 SCT060 12/05 Q1022
  • 201800Z 28014KT 9999 FEW050 12/05 Q1021

TAF TAF LEZG
Valide du 20 à 18h jusqu'au 21 à 18h UTC


201700Z 2018/2118 28010KT 9999 SCT040 TX17/2114Z TN10/2107Z
TEMPO 2110/2118 31020G30KT
Pas de NOTAMs connus pour ce terrain.



MET'MAP, la Météo Aéronautique d'un coup d'oeil ! - Copyright ORBIFLY Décembre 2007 - Disclaimer

ORBIFLY MET'MAP TEAM :

Programmation & Développement : Alexandra Zaïnal
Conception & Développement : Baudouin d'Aumeries
Co-Programmation & Développement : Marc-Olivier Méhu
Soutien technique & logistique : Manuel Goepfert

Contact : metmap@orbifly.com




SOURCES & CREDITS :

   NOAA